createdAt,value
2019-03-22T00:00:12.881Z,29.75
2019-03-22T00:02:41.425Z,28.57
2019-03-22T00:05:09.908Z,30.05
2019-03-22T00:07:38.409Z,31.30
2019-03-22T00:10:06.898Z,34.78
2019-03-22T00:12:35.388Z,33.70
2019-03-22T00:15:06.146Z,32.08
2019-03-22T00:17:34.625Z,32.35
2019-03-22T00:20:04.216Z,36.30
2019-03-22T00:22:32.714Z,37.95
2019-03-22T00:25:01.252Z,34.25
2019-03-22T00:27:29.730Z,37.85
2019-03-22T00:29:58.221Z,34.78
2019-03-22T00:32:26.710Z,36.23
2019-03-22T00:34:55.194Z,40.15
2019-03-22T00:37:23.688Z,44.38
2019-03-22T00:39:52.180Z,35.25
2019-03-22T00:42:20.677Z,26.85
2019-03-22T00:44:49.167Z,27.52
2019-03-22T00:47:17.663Z,30.30
2019-03-22T00:49:46.154Z,25.00
2019-03-22T00:52:14.646Z,25.68
2019-03-22T00:54:43.129Z,26.12
2019-03-22T00:57:11.623Z,27.95
2019-03-22T00:59:40.110Z,29.57
2019-03-22T01:02:08.591Z,31.12
2019-03-22T01:04:37.082Z,32.23
2019-03-22T01:07:05.572Z,42.93
2019-03-22T01:09:34.100Z,45.15
2019-03-22T01:12:02.588Z,54.00
2019-03-22T01:14:31.077Z,44.98
2019-03-22T01:16:59.606Z,37.80
2019-03-22T01:19:28.090Z,34.45
2019-03-22T01:21:56.577Z,36.30
2019-03-22T01:24:25.094Z,38.88
2019-03-22T01:26:53.583Z,40.58
2019-03-22T01:29:22.072Z,46.15
2019-03-22T01:31:50.557Z,49.15
2019-03-22T01:34:19.044Z,46.88
2019-03-22T01:36:47.527Z,39.13
2019-03-22T01:39:16.022Z,48.65
2019-03-22T01:41:44.520Z,46.13
2019-03-22T01:44:13.010Z,46.10
2019-03-22T01:46:41.500Z,46.60
2019-03-22T01:49:09.993Z,44.10
2019-03-22T01:51:38.479Z,47.08
2019-03-22T01:54:06.958Z,44.67
2019-03-22T01:56:35.463Z,49.50
2019-03-22T01:59:03.946Z,45.38
2019-03-22T02:01:32.438Z,47.50
2019-03-22T02:04:00.922Z,44.23
2019-03-22T02:06:30.478Z,40.05
2019-03-22T02:08:58.964Z,43.98
2019-03-22T02:11:27.458Z,103.22
2019-03-22T02:13:55.943Z,77.10
2019-03-22T02:16:24.435Z,42.88
2019-03-22T02:18:52.922Z,40.05
2019-03-22T02:21:21.417Z,34.33
2019-03-22T02:23:52.087Z,36.85
2019-03-22T02:26:20.121Z,35.13
2019-03-22T02:28:48.615Z,38.17
2019-03-22T02:31:17.112Z,39.25
2019-03-22T02:33:45.598Z,41.00
2019-03-22T02:36:14.138Z,39.15
2019-03-22T02:38:42.778Z,35.80
2019-03-22T02:41:11.283Z,38.35
2019-03-22T02:43:39.768Z,47.35
2019-03-22T02:46:08.266Z,46.25
2019-03-22T02:48:36.750Z,46.90
2019-03-22T02:51:05.247Z,39.45
2019-03-22T02:53:33.745Z,47.38
2019-03-22T02:56:02.498Z,43.63
2019-03-22T02:58:31.205Z,40.65
2019-03-22T03:00:59.697Z,42.05
2019-03-22T03:03:28.197Z,43.23
2019-03-22T03:05:56.690Z,41.55
2019-03-22T03:08:25.181Z,47.83
2019-03-22T03:10:53.675Z,44.88
2019-03-22T03:13:22.164Z,42.25
2019-03-22T03:15:50.652Z,47.23
2019-03-22T03:18:19.152Z,44.18
2019-03-22T03:20:47.640Z,55.20
2019-03-22T03:23:16.140Z,48.38
2019-03-22T03:25:44.628Z,47.67
2019-03-22T03:28:13.119Z,48.10
2019-03-22T03:30:41.622Z,53.15
2019-03-22T03:33:10.097Z,58.13
2019-03-22T03:35:38.581Z,58.05
2019-03-22T03:38:07.069Z,52.83
2019-03-22T03:40:35.857Z,51.50
2019-03-22T03:43:04.343Z,51.48
2019-03-22T03:45:38.973Z,42.20
2019-03-22T03:48:09.420Z,42.43
2019-03-22T03:50:37.918Z,46.77
2019-03-22T03:53:06.404Z,47.08
2019-03-22T03:55:34.906Z,49.40
2019-03-22T03:58:03.390Z,48.73
2019-03-22T04:00:31.902Z,41.42
2019-03-22T04:03:00.393Z,35.83
2019-03-22T04:05:28.925Z,35.92
2019-03-22T04:07:57.408Z,39.35
2019-03-22T04:10:25.895Z,40.05
2019-03-22T04:12:54.402Z,36.33
2019-03-22T04:15:22.874Z,34.50
2019-03-22T04:17:51.363Z,57.45
2019-03-22T04:20:19.915Z,40.35
2019-03-22T04:22:48.429Z,35.50
2019-03-22T04:25:16.953Z,35.58
2019-03-22T04:27:45.416Z,37.08
2019-03-22T04:30:13.899Z,33.70
2019-03-22T04:32:42.743Z,34.50
2019-03-22T04:35:11.347Z,33.95
2019-03-22T04:37:39.839Z,40.65
2019-03-22T04:40:11.487Z,43.48
2019-03-22T04:42:39.972Z,36.05
2019-03-22T04:45:08.461Z,35.38
2019-03-22T04:47:36.963Z,31.77
2019-03-22T04:50:06.238Z,37.42
2019-03-22T04:52:34.878Z,57.00
2019-03-22T04:55:03.378Z,41.30
2019-03-22T04:57:31.855Z,50.17
2019-03-22T05:00:00.469Z,47.35
2019-03-22T05:02:30.784Z,61.15
2019-03-22T05:04:59.273Z,47.03
2019-03-22T05:07:27.754Z,45.50
2019-03-22T05:09:56.250Z,64.07
2019-03-22T05:12:24.742Z,90.17
2019-03-22T05:14:53.235Z,50.50
2019-03-22T05:17:21.723Z,46.30
2019-03-22T05:19:51.829Z,61.08
2019-03-22T05:22:20.411Z,62.27
2019-03-22T05:24:48.909Z,62.15
2019-03-22T05:27:17.391Z,60.12
2019-03-22T05:29:45.891Z,73.80
2019-03-22T05:32:15.377Z,70.00
2019-03-22T05:34:43.874Z,63.45
2019-03-22T05:37:12.354Z,64.05
2019-03-22T05:39:40.837Z,67.12
2019-03-22T05:42:09.333Z,63.73
2019-03-22T05:44:37.813Z,92.53
2019-03-22T05:47:06.320Z,114.95
2019-03-22T05:49:34.796Z,91.92
2019-03-22T05:52:03.292Z,70.55
2019-03-22T05:54:31.784Z,81.67
2019-03-22T05:57:00.936Z,65.45
2019-03-22T05:59:29.548Z,72.78
2019-03-22T06:01:58.035Z,89.80
2019-03-22T06:04:26.527Z,65.47
2019-03-22T06:06:55.031Z,71.47
2019-03-22T06:09:23.523Z,59.38
2019-03-22T06:11:52.019Z,63.63
2019-03-22T06:14:20.513Z,73.12
2019-03-22T06:16:49.015Z,64.50
2019-03-22T06:19:17.507Z,58.42
2019-03-22T06:21:46.103Z,57.17
2019-03-22T06:24:14.589Z,50.50
2019-03-22T06:26:43.087Z,52.65
2019-03-22T06:29:11.577Z,60.80
2019-03-22T06:31:40.090Z,52.88
2019-03-22T06:34:08.579Z,51.77
2019-03-22T06:36:37.103Z,48.23
2019-03-22T06:39:07.647Z,45.65
2019-03-22T06:41:36.376Z,51.08
2019-03-22T06:44:04.890Z,47.17
2019-03-22T06:46:33.381Z,50.75
2019-03-22T06:49:01.984Z,52.62
2019-03-22T06:51:30.470Z,51.35
2019-03-22T06:53:58.978Z,51.42
2019-03-22T06:56:27.462Z,50.33
2019-03-22T06:58:55.956Z,49.77
2019-03-22T07:01:24.454Z,59.13
2019-03-22T07:03:52.963Z,60.23
2019-03-22T07:06:21.442Z,50.33
2019-03-22T07:08:49.944Z,43.80
2019-03-22T07:11:18.476Z,48.17
2019-03-22T07:13:46.975Z,52.83
2019-03-22T07:16:15.466Z,58.13
2019-03-22T07:18:43.978Z,54.48
2019-03-22T07:21:12.474Z,55.25
2019-03-22T07:23:40.983Z,193.60
2019-03-22T07:26:09.481Z,60.63
2019-03-22T07:28:37.977Z,87.53
2019-03-22T07:31:06.484Z,263.52
2019-03-22T07:33:34.993Z,387.93
2019-03-22T07:36:03.507Z,225.00
2019-03-22T07:38:32.008Z,159.43
2019-03-22T07:41:00.521Z,298.18
2019-03-22T07:43:29.037Z,136.32
2019-03-22T07:45:57.519Z,51.83
2019-03-22T07:48:26.025Z,52.30
2019-03-22T07:50:54.513Z,54.98
2019-03-22T07:53:23.014Z,51.88
2019-03-22T07:55:51.506Z,46.20
2019-03-22T07:58:20.000Z,41.02
2019-03-22T08:00:48.497Z,70.05
2019-03-22T08:03:16.985Z,44.27
2019-03-22T08:05:50.997Z,42.78
2019-03-22T08:08:15.696Z,35.63
2019-03-22T08:10:44.193Z,38.98
2019-03-22T08:13:12.675Z,34.48
2019-03-22T08:15:41.176Z,37.93
2019-03-22T08:18:09.660Z,36.40
2019-03-22T08:20:38.908Z,34.67
2019-03-22T08:23:23.612Z,39.50
2019-03-22T08:25:52.107Z,35.63
2019-03-22T08:28:20.574Z,142.93
2019-03-22T08:30:49.054Z,38.63
2019-03-22T08:33:17.544Z,29.67
2019-03-22T08:35:46.057Z,36.23
2019-03-22T08:38:17.374Z,33.18
2019-03-22T08:40:44.759Z,36.63
2019-03-22T08:43:13.247Z,27.93
2019-03-22T08:45:41.809Z,29.95
2019-03-22T08:48:10.362Z,26.40
2019-03-22T08:50:38.901Z,29.05
2019-03-22T08:53:07.389Z,33.30
2019-03-22T08:55:35.960Z,29.30
2019-03-22T08:58:04.464Z,32.78
2019-03-22T09:00:39.197Z,43.68
2019-03-22T09:03:03.179Z,35.50
2019-03-22T09:05:31.690Z,27.60
2019-03-22T09:08:00.173Z,25.77
2019-03-22T09:10:28.667Z,35.38
2019-03-22T09:12:57.356Z,36.53
2019-03-22T09:15:25.856Z,21.90
2019-03-22T09:17:54.358Z,42.38
2019-03-22T09:20:22.880Z,24.65
2019-03-22T09:22:51.325Z,19.00
2019-03-22T09:25:19.831Z,17.62
2019-03-22T09:27:48.323Z,29.42
2019-03-22T09:30:17.227Z,16.73
2019-03-22T09:32:45.734Z,16.37
2019-03-22T09:35:14.246Z,16.67
2019-03-22T09:37:42.691Z,21.48
2019-03-22T09:40:11.190Z,15.70
2019-03-22T09:42:39.709Z,22.30
2019-03-22T09:45:09.206Z,22.13
2019-03-22T09:47:37.662Z,13.30
2019-03-22T09:50:08.990Z,27.02
2019-03-22T09:52:37.543Z,25.23
2019-03-22T09:55:13.427Z,24.95
2019-03-22T09:57:36.189Z,12.50
2019-03-22T10:00:07.482Z,12.43
2019-03-22T10:02:35.977Z,21.33
2019-03-22T10:05:05.736Z,23.90
2019-03-22T10:07:34.238Z,14.05
2019-03-22T10:10:02.742Z,36.85
2019-03-22T10:12:31.219Z,18.23
2019-03-22T10:14:59.703Z,28.12
2019-03-22T10:17:28.243Z,22.48
2019-03-22T10:19:56.788Z,24.43
2019-03-22T10:22:25.235Z,21.07
2019-03-22T10:24:53.756Z,15.28
2019-03-22T10:27:22.280Z,20.35
2019-03-22T10:29:50.890Z,24.70
2019-03-22T10:32:19.412Z,22.58
2019-03-22T10:34:47.879Z,21.68
2019-03-22T10:37:16.365Z,18.90
2019-03-22T10:39:44.887Z,16.17
2019-03-22T10:42:13.343Z,20.57
2019-03-22T10:44:41.852Z,15.75
2019-03-22T10:47:10.329Z,23.47
2019-03-22T10:49:41.790Z,15.70
2019-03-22T10:52:09.058Z,22.50
2019-03-22T10:54:37.546Z,14.07
2019-03-22T10:57:06.043Z,23.15
2019-03-22T10:59:34.533Z,19.35
2019-03-22T11:02:04.014Z,32.48
2019-03-22T11:04:33.279Z,20.37
2019-03-22T11:07:01.738Z,16.90
2019-03-22T11:09:30.237Z,17.92
2019-03-22T11:11:58.743Z,32.70
2019-03-22T11:14:27.235Z,27.77
2019-03-22T11:16:55.736Z,23.92
2019-03-22T11:19:24.236Z,25.57
2019-03-22T11:21:52.721Z,20.92
2019-03-22T11:24:21.208Z,30.23
2019-03-22T11:26:49.750Z,22.00
2019-03-22T11:29:18.234Z,23.75
2019-03-22T11:31:46.721Z,29.40
2019-03-22T11:34:15.218Z,18.30
2019-03-22T11:36:43.830Z,32.95
2019-03-22T11:39:15.887Z,33.88
2019-03-22T11:41:42.730Z,16.55
2019-03-22T11:44:11.229Z,21.93
2019-03-22T11:46:39.716Z,33.35
2019-03-22T11:49:08.215Z,20.37
2019-03-22T11:51:36.698Z,28.17
2019-03-22T11:54:05.196Z,21.55
2019-03-22T11:56:33.688Z,26.52
2019-03-22T11:59:02.180Z,32.58
2019-03-22T12:01:30.680Z,31.15
2019-03-22T12:03:59.172Z,29.02
2019-03-22T12:06:27.682Z,17.48
2019-03-22T12:08:56.167Z,24.45
2019-03-22T12:11:24.666Z,17.82
2019-03-22T12:13:53.161Z,26.27
2019-03-22T12:16:21.659Z,20.85
2019-03-22T12:18:50.487Z,22.58
2019-03-22T12:21:19.111Z,21.70
2019-03-22T12:23:47.601Z,22.58
2019-03-22T12:26:16.171Z,22.13
2019-03-22T12:28:44.656Z,16.45
2019-03-22T12:31:13.140Z,14.55
2019-03-22T12:33:41.631Z,17.35
2019-03-22T12:36:10.122Z,24.40
2019-03-22T12:38:38.612Z,15.15
2019-03-22T12:41:07.120Z,16.55
2019-03-22T12:43:35.614Z,20.12
2019-03-22T12:46:04.107Z,15.55
2019-03-22T12:48:32.604Z,19.55
2019-03-22T12:51:01.105Z,16.12
2019-03-22T12:53:29.588Z,19.20
2019-03-22T12:55:58.086Z,20.95
2019-03-22T12:58:26.567Z,17.35
2019-03-22T13:00:55.069Z,16.32
2019-03-22T13:03:24.454Z,17.80
2019-03-22T13:05:53.035Z,18.32
2019-03-22T13:08:21.526Z,19.82
2019-03-22T13:10:50.020Z,20.37
2019-03-22T13:13:18.508Z,23.67
2019-03-22T13:15:46.997Z,18.95
2019-03-22T13:18:15.477Z,14.03
2019-03-22T13:20:43.973Z,19.15
2019-03-22T13:23:12.459Z,19.67
2019-03-22T13:25:40.955Z,55.92
2019-03-22T13:28:09.444Z,20.10
2019-03-22T13:30:37.938Z,17.92
2019-03-22T13:33:06.425Z,18.02
2019-03-22T13:35:34.921Z,20.25
2019-03-22T13:38:03.410Z,17.57
2019-03-22T13:40:31.905Z,14.70
2019-03-22T13:43:00.388Z,18.57
2019-03-22T13:45:28.883Z,14.73
2019-03-22T13:47:57.507Z,24.72
2019-03-22T13:50:25.959Z,15.85
2019-03-22T13:52:54.451Z,14.73
2019-03-22T13:55:23.035Z,23.22
2019-03-22T13:57:51.535Z,14.50
2019-03-22T14:00:20.021Z,18.90
2019-03-22T14:02:48.514Z,22.35
2019-03-22T14:05:17.005Z,32.50
2019-03-22T14:07:45.508Z,20.60
2019-03-22T14:10:20.122Z,14.23
2019-03-22T14:12:48.621Z,35.45
2019-03-22T14:15:17.104Z,16.40
2019-03-22T14:17:45.598Z,61.48
2019-03-22T14:20:14.077Z,25.50
2019-03-22T14:22:42.571Z,14.68
2019-03-22T14:25:11.060Z,14.75
2019-03-22T14:27:39.606Z,20.10
2019-03-22T14:30:08.599Z,16.55
2019-03-22T14:32:37.082Z,23.47
2019-03-22T14:35:06.979Z,17.98
2019-03-22T14:37:35.476Z,15.43
2019-03-22T14:40:05.390Z,14.50
2019-03-22T14:42:33.857Z,24.35
2019-03-22T14:45:02.841Z,25.85
2019-03-22T14:47:31.332Z,15.05
2019-03-22T14:49:59.826Z,28.80
2019-03-22T14:52:28.306Z,15.30
2019-03-22T14:54:56.801Z,12.45
2019-03-22T14:57:25.282Z,11.88
2019-03-22T14:59:58.888Z,28.32
2019-03-22T15:02:23.981Z,29.98
2019-03-22T15:04:52.481Z,24.57
2019-03-22T15:07:20.968Z,11.00
2019-03-22T15:09:49.473Z,11.75
2019-03-22T15:12:17.953Z,15.58
2019-03-22T15:15:01.490Z,11.88
2019-03-22T15:17:49.902Z,25.85
2019-03-22T15:20:31.844Z,14.10
2019-03-22T15:23:18.677Z,15.45
2019-03-22T15:26:05.017Z,17.73
2019-03-22T15:28:40.962Z,36.45
2019-03-22T15:31:13.725Z,16.75
2019-03-22T15:33:59.744Z,16.48
2019-03-22T15:36:29.819Z,35.65
2019-03-22T15:39:03.041Z,22.90
2019-03-22T15:41:31.823Z,21.65
2019-03-22T15:44:00.333Z,37.63
2019-03-22T15:46:28.806Z,19.98
2019-03-22T15:48:57.293Z,18.23
2019-03-22T15:51:25.779Z,32.58
2019-03-22T15:53:54.281Z,25.02
2019-03-22T15:56:22.767Z,29.67
2019-03-22T15:58:51.266Z,20.50
2019-03-22T16:01:19.752Z,30.17
2019-03-22T16:03:48.246Z,18.20
2019-03-22T16:06:16.745Z,27.40
2019-03-22T16:08:45.512Z,26.87
2019-03-22T16:11:13.972Z,22.67
2019-03-22T16:13:42.485Z,30.70
2019-03-22T16:16:10.973Z,23.73
2019-03-22T16:18:39.474Z,22.30
2019-03-22T16:21:07.961Z,19.85
2019-03-22T16:23:36.460Z,22.45
2019-03-22T16:26:04.949Z,22.58
2019-03-22T16:28:33.481Z,31.42
2019-03-22T16:31:02.150Z,22.65
2019-03-22T16:33:30.839Z,32.98
2019-03-22T16:36:00.040Z,33.18
2019-03-22T16:38:28.618Z,25.88
2019-03-22T16:40:57.195Z,36.58
2019-03-22T16:43:25.779Z,34.25
2019-03-22T16:45:54.471Z,31.20
2019-03-22T16:48:23.044Z,21.23
2019-03-22T16:50:51.728Z,21.35
2019-03-22T16:53:20.308Z,27.80
2019-03-22T16:55:49.000Z,22.65
2019-03-22T16:58:17.578Z,30.45
2019-03-22T17:00:46.162Z,31.85
2019-03-22T17:03:14.760Z,47.25
2019-03-22T17:05:43.529Z,27.52
2019-03-22T17:08:12.220Z,46.90
2019-03-22T17:10:40.794Z,59.30
2019-03-22T17:13:09.373Z,67.12
2019-03-22T17:15:37.954Z,60.95
2019-03-22T17:18:06.658Z,84.30
2019-03-22T17:20:35.326Z,90.50
2019-03-22T17:23:03.906Z,89.45
2019-03-22T17:25:32.487Z,88.97
2019-03-22T17:28:01.069Z,89.03
2019-03-22T17:30:29.652Z,68.83
2019-03-22T17:32:58.339Z,37.00
2019-03-22T17:35:26.921Z,33.90
2019-03-22T17:37:55.705Z,34.20
2019-03-22T17:40:24.285Z,29.70
2019-03-22T17:42:52.874Z,29.02
2019-03-22T17:45:21.556Z,33.75
2019-03-22T17:47:50.238Z,30.77
2019-03-22T17:50:18.926Z,19.57
2019-03-22T17:52:47.503Z,19.15
2019-03-22T17:55:16.191Z,22.25
2019-03-22T17:57:44.767Z,20.95
2019-03-22T18:00:17.447Z,21.35
2019-03-22T18:02:46.022Z,20.05
2019-03-22T18:05:14.609Z,23.22
2019-03-22T18:07:43.191Z,22.70
2019-03-22T18:10:12.282Z,43.92
2019-03-22T18:12:40.879Z,53.85
2019-03-22T18:15:11.806Z,34.60
2019-03-22T18:17:40.385Z,30.68
2019-03-22T18:20:11.073Z,27.95
2019-03-22T18:22:39.705Z,35.03
2019-03-22T18:25:09.385Z,29.95
2019-03-22T18:27:37.987Z,58.55
2019-03-22T18:30:14.258Z,31.77
2019-03-22T18:32:42.834Z,29.98
2019-03-22T18:35:11.416Z,27.13
2019-03-22T18:37:39.996Z,20.82
2019-03-22T18:40:15.429Z,31.25
2019-03-22T18:42:44.123Z,17.48
2019-03-22T18:45:13.316Z,16.62
2019-03-22T18:47:42.207Z,19.00
2019-03-22T18:50:11.483Z,16.00
2019-03-22T18:52:40.089Z,26.68
2019-03-22T18:55:08.877Z,15.85
2019-03-22T18:57:37.561Z,22.40
2019-03-22T19:00:08.706Z,16.20
2019-03-22T19:02:37.389Z,29.25
2019-03-22T19:05:07.876Z,47.08
2019-03-22T19:07:36.492Z,34.25
2019-03-22T19:10:10.403Z,17.60
2019-03-22T19:12:39.089Z,19.27
2019-03-22T19:15:09.762Z,21.50
2019-03-22T19:17:38.400Z,29.40
2019-03-22T19:20:11.793Z,21.75
2019-03-22T19:22:40.373Z,18.57
2019-03-22T19:25:09.364Z,14.65
2019-03-22T19:27:37.948Z,18.57
2019-03-22T19:30:09.705Z,18.75
2019-03-22T19:32:38.898Z,16.95
2019-03-22T19:35:14.346Z,18.52
2019-03-22T19:37:45.176Z,17.12
2019-03-22T19:40:14.633Z,17.20
2019-03-22T19:42:43.264Z,19.67
2019-03-22T19:45:16.717Z,15.35
2019-03-22T19:47:45.553Z,20.57
2019-03-22T19:50:15.542Z,20.65
2019-03-22T19:52:44.141Z,30.80
2019-03-22T19:55:13.237Z,18.02
2019-03-22T19:57:41.822Z,15.48
2019-03-22T20:00:19.000Z,14.15
2019-03-22T20:02:49.240Z,22.17
2019-03-22T20:05:32.457Z,18.67
2019-03-22T20:08:01.954Z,15.53
2019-03-22T20:10:30.531Z,17.23
2019-03-22T20:12:59.119Z,26.33
2019-03-22T20:15:27.696Z,16.52
2019-03-22T20:17:56.279Z,22.67
2019-03-22T20:20:24.858Z,19.60
2019-03-22T20:22:53.441Z,18.92
2019-03-22T20:25:22.129Z,14.75
2019-03-22T20:27:50.810Z,29.87
2019-03-22T20:30:19.799Z,18.95
2019-03-22T20:32:48.384Z,11.95
2019-03-22T20:35:17.240Z,17.35
2019-03-22T20:37:45.956Z,13.43
2019-03-22T20:40:18.537Z,12.05
2019-03-22T20:42:47.212Z,11.08
2019-03-22T20:45:24.203Z,14.10
2019-03-22T20:47:46.118Z,10.63
2019-03-22T20:50:14.702Z,11.90
2019-03-22T20:52:43.285Z,18.00
2019-03-22T20:55:11.968Z,21.87
2019-03-22T20:57:40.548Z,21.30
2019-03-22T21:00:14.557Z,20.23
2019-03-22T21:02:43.154Z,14.20
2019-03-22T21:05:11.722Z,12.73
2019-03-22T21:07:40.304Z,14.47
2019-03-22T21:10:09.602Z,11.43
2019-03-22T21:12:38.184Z,9.83
2019-03-22T21:15:08.531Z,13.03
2019-03-22T21:17:38.745Z,10.82
2019-03-22T21:20:08.433Z,14.00
2019-03-22T21:22:36.921Z,12.88
2019-03-22T21:25:09.561Z,12.75
2019-03-22T21:27:38.058Z,12.05
2019-03-22T21:30:11.944Z,11.12
2019-03-22T21:32:45.086Z,12.78
2019-03-22T21:35:21.559Z,15.45
2019-03-22T21:37:40.873Z,19.25
2019-03-22T21:40:10.459Z,18.65
2019-03-22T21:42:38.954Z,25.05
2019-03-22T21:45:08.233Z,22.80
2019-03-22T21:47:36.737Z,21.60
2019-03-22T21:50:09.765Z,14.78
2019-03-22T21:52:38.264Z,17.92
2019-03-22T21:55:07.850Z,14.78
2019-03-22T21:57:36.356Z,34.05
2019-03-22T22:00:09.513Z,27.13
2019-03-22T22:02:38.050Z,24.37
2019-03-22T22:05:07.042Z,27.65
2019-03-22T22:07:35.538Z,27.13
2019-03-22T22:10:08.739Z,30.80
2019-03-22T22:12:37.244Z,30.43
2019-03-22T22:15:09.008Z,33.40
2019-03-22T22:17:39.315Z,27.42
2019-03-22T22:20:07.873Z,27.30
2019-03-22T22:22:36.375Z,23.73
2019-03-22T22:25:06.737Z,18.85
2019-03-22T22:27:35.396Z,17.10
2019-03-22T22:30:06.395Z,22.10
2019-03-22T22:32:34.877Z,17.45
2019-03-22T22:35:04.473Z,14.47
2019-03-22T22:37:32.959Z,18.32
2019-03-22T22:40:01.457Z,16.75
2019-03-22T22:42:29.958Z,25.68
2019-03-22T22:44:58.457Z,17.37
2019-03-22T22:47:26.942Z,19.85
2019-03-22T22:49:55.482Z,19.37
2019-03-22T22:52:23.979Z,18.98
2019-03-22T22:54:52.466Z,21.10
2019-03-22T22:57:20.970Z,18.27
2019-03-22T22:59:49.456Z,22.75
2019-03-22T23:02:17.951Z,23.22
2019-03-22T23:04:46.441Z,19.40
2019-03-22T23:07:14.935Z,18.15
2019-03-22T23:09:43.437Z,16.93
2019-03-22T23:12:12.127Z,19.37
2019-03-22T23:14:40.611Z,17.37
2019-03-22T23:17:09.107Z,17.00
2019-03-22T23:19:37.599Z,21.62
2019-03-22T23:22:06.102Z,18.77
2019-03-22T23:24:34.592Z,19.70
2019-03-22T23:27:03.091Z,17.07
2019-03-22T23:29:31.608Z,19.00
2019-03-22T23:32:00.078Z,16.97
2019-03-22T23:34:28.568Z,20.20
2019-03-22T23:36:57.115Z,25.25
2019-03-22T23:39:25.607Z,19.45
2019-03-22T23:41:54.098Z,23.35
2019-03-22T23:44:22.601Z,21.73
2019-03-22T23:46:51.081Z,14.63
2019-03-22T23:49:19.578Z,15.88
2019-03-22T23:51:48.068Z,14.40
2019-03-22T23:54:16.560Z,15.95
2019-03-22T23:56:45.051Z,19.92
2019-03-22T23:59:13.548Z,19.87
